Language selection

Features

My Weather Profile Weather Topics  | 

West Foxe: Past 24 Hour Conditions

 

Coral Harbour Airport

08:00 PM EST 14 April 2021
Disclaimer

This table is a summary of hourly weather conditions for the past 24 hours.
Please note that these observations might not always be representative of weather conditions over their associated marine area.

Date / Time
(EST)
Wind(knots) Conditions Visibility(km) Pressure(kPa) Air tempC) Relative humidity(%) Dew pointC) Wind Chill
14 April 2021
20:00 E 2 Mostly Cloudy 24 103.9 -17 76 -20 -20
19:00 E 2 Mostly Cloudy 24 103.9 -16 68 -21 -19
18:00 SE 2 Mostly Cloudy 24 104.0 -15 68 -20 -18
17:00 SSE 2 Partly Cloudy 24 104.0 -14 61 -20 -16
16:00 SW 5 Partly Cloudy 24 104.1 -14 71 -18 -19
15:00 WNW 5 Partly Cloudy 24 104.1 -13 55 -20 -18
14:00 NW 5 Partly Cloudy 24 104.1 -13 61 -19 -19
13:00 NW 5 Partly Cloudy 24 104.1 -14 63 -19 -19
12:00 NNW 8 Mainly Sunny 24 104.1 -15 65 -20 -23
11:00 NW 8 Sunny 24 104.1 -17 67 -21 -25
10:00 NW 8 Sunny 24 104.2 -19 66 -24 -28
9:00 NW 9 Sunny 24 104.2 -21 62 -26 -30
8:00 NNW 8 Sunny 24 104.2 -23 65 -28 -33
7:00 N 2 Sunny 24 104.2 -24 63 -29 -27
6:00 N 10 Sunny 24 104.2 -25 63 -30 -36
5:00 N 10 Clear 24 104.2 -26 66 -31 -38
4:00 NNW 12 Clear 24 104.2 -26 68 -30 -38
3:00 NNW 14 Clear 24 104.2 -26 69 -30 -39
2:00 NNE 9 Clear 24 104.2 -23 65 -28 -33
1:00 NNW 12 Clear 24 104.2 -25 69 -29 -37
0:00 NNW 14 Clear 24 104.2 -24 68 -28 -37
13 April 2021
23:00 NNW 15 Clear 24 104.2 -23 69 -27 -36
22:00 N 15 Clear 24 104.1 -22 70 -26 -34
21:00 NNW 17 Clear 24 104.1 -21 72 -25 -35
20:00 NNW 16 Sunny 24 104.1 -19 70 -23 -31

Zoom-in to make a selection

Map of Hudson - Hudson Bay marine weather areas Arviat Airport Baker Lake Airport Chesterfield Inlet Airport Coral Harbour Airport Rankin Inlet Airport Sanikiluaq Airport Whale Cove Airport Kinngait (Cape Dorset Airport) Iqaluit Airport Wager Bay Kimmirut Airport Churchill Airport Fort Severn Airport Peawanuck Airport Moosonee Airport Eastmain Airport La Grande Rivière Airport Waskaganish Airport Wemindji Airport Akulivik Airport Inukjuak Airport Ivujivik Airport Kuujjuarapik Airport Puvirnituq Airport Umiujaq Airport Aupaluk Airport Kangiqsujuaq Airport Kangirsuk Airport Kangiqsualujjuaq Airport Kuujjuaq Airport Quaqtaq Airport Salluit Airport Tasiujaq Airport Cape Kakkiviak
Legend:
buoy Buoy
land station Land Station

Hudson - Hudson Bay Area

Another Region

What we are doing

Date modified: